Time;durP1;ratioP1;P1;durP2;ratioP2;P2;SDS_P1;SDS_P2;PMS_P1;PMS_P2;Temp;Humidity;BMP_temperature;BMP_pressure;BME280_temperature;BME280_humidity;BME280_pressure;Samples;Min_cycle;Max_cycle;Signal;HPM_P1;HPM_P2
2021/05/04 00:01:49;;;;;;;10.97;5.73;;;3.50;99.90;;;;;;20896163;28;20514;-76
2021/05/04 00:11:51;;;;;;;10.38;5.15;;;3.60;99.90;;;;;;20921055;28;20101;-76
2021/05/04 00:21:51;;;;;;;10.45;5.85;;;3.30;99.90;;;;;;20884939;28;20033;-76
2021/05/04 00:31:52;;;;;;;8.77;5.40;;;3.40;99.90;;;;;;20918996;28;20086;-76
2021/05/04 00:41:53;;;;;;;9.30;5.33;;;3.10;99.90;;;;;;20930874;28;20366;-74
2021/05/04 00:51:57;;;;;;;8.57;5.43;;;3.00;99.90;;;;;;20899882;28;20386;-74
2021/05/04 01:01:58;;;;;;;14.70;5.03;;;3.10;99.90;;;;;;20916192;28;20429;-75
2021/05/04 01:11:59;;;;;;;9.60;5.10;;;2.90;99.90;;;;;;20915090;28;20039;-77
2021/05/04 01:22:00;;;;;;;9.60;4.18;;;2.90;99.90;;;;;;20897042;28;20048;-76
2021/05/04 01:32:01;;;;;;;7.40;4.38;;;2.90;99.90;;;;;;20896157;28;20116;-73
2021/05/04 01:42:02;;;;;;;6.90;3.87;;;2.60;99.90;;;;;;20913094;28;20049;-75
2021/05/04 01:52:05;;;;;;;6.32;4.00;;;2.60;99.90;;;;;;20912467;28;20267;-76
2021/05/04 02:02:05;;;;;;;7.40;4.35;;;2.40;99.90;;;;;;20911470;28;20037;-75
2021/05/04 02:12:06;;;;;;;;;;;2.10;99.90;;;;;;20911094;28;20028;-76
2021/05/04 02:22:07;;;;;;;8.52;4.25;;;2.20;99.90;;;;;;20909152;28;20000;-76
2021/05/04 02:32:08;;;;;;;;;;;2.10;99.90;;;;;;20909800;28;20064;-76
2021/05/04 02:42:09;;;;;;;7.57;5.00;;;2.40;99.90;;;;;;20908721;28;19917;-76
2021/05/04 02:52:10;;;;;;;;;;;2.40;99.90;;;;;;20918252;28;20037;-75
2021/05/04 03:02:11;;;;;;;6.72;4.82;;;2.30;99.90;;;;;;20889806;28;19963;-75
2021/05/04 03:12:11;;;;;;;;;;;2.10;99.90;;;;;;20889916;28;20068;-75
2021/05/04 03:22:12;;;;;;;7.82;4.60;;;2.20;99.90;;;;;;20843299;23;19921;-72
2021/05/04 03:32:13;;;;;;;;;;;2.20;99.90;;;;;;20833031;28;20033;-72
2021/05/04 03:42:14;;;;;;;9.63;4.80;;;2.00;99.90;;;;;;20860558;28;19924;-73
2021/05/04 03:52:14;;;;;;;;;;;2.10;99.90;;;;;;20847678;28;20028;-72
2021/05/04 04:02:15;;;;;;;6.82;4.63;;;2.00;99.90;;;;;;20838265;28;19916;-73
2021/05/04 04:12:16;;;;;;;;;;;2.30;99.90;;;;;;20838901;28;20030;-72
2021/05/04 04:22:16;;;;;;;11.23;5.07;;;2.50;99.90;;;;;;20837206;28;19919;-73
2021/05/04 04:32:17;;;;;;;6.75;4.57;;;2.60;99.90;;;;;;20838098;28;20026;-73
2021/05/04 04:42:18;;;;;;;9.50;5.32;;;2.60;99.90;;;;;;20837514;28;20021;-73
2021/05/04 04:52:19;;;;;;;14.13;8.63;;;2.70;99.90;;;;;;20834895;28;20036;-73
2021/05/04 05:02:20;;;;;;;10.93;6.72;;;2.90;99.90;;;;;;20825971;28;20032;-73
2021/05/04 05:12:23;;;;;;;9.70;6.95;;;3.00;99.90;;;;;;20832425;28;20036;-73
2021/05/04 05:22:25;;;;;;;10.02;5.70;;;3.30;99.90;;;;;;20834602;28;20029;-73
2021/05/04 05:32:26;;;;;;;9.52;6.03;;;3.60;99.90;;;;;;20834322;28;20044;-73
2021/05/04 05:42:27;;;;;;;10.90;6.95;;;3.90;99.90;;;;;;20834822;28;20030;-73
2021/05/04 05:52:28;;;;;;;12.80;7.50;;;3.90;99.90;;;;;;20832981;28;20037;-72
2021/05/04 06:02:28;;;;;;;12.10;7.40;;;4.10;99.90;;;;;;20832474;28;20030;-73
2021/05/04 06:12:29;;;;;;;10.23;6.63;;;4.50;99.90;;;;;;20831694;28;20036;-73
2021/05/04 06:22:30;;;;;;;10.17;7.13;;;4.80;99.90;;;;;;20830798;28;20036;-73
2021/05/04 06:32:31;;;;;;;11.27;8.13;;;5.20;99.90;;;;;;20829676;28;20045;-73
2021/05/04 06:42:32;;;;;;;10.30;7.47;;;5.70;99.90;;;;;;20828618;28;20486;-73
2021/05/04 06:52:33;;;;;;;12.03;7.83;;;6.10;99.90;;;;;;20826783;28;20079;-73
2021/05/04 07:02:34;;;;;;;16.53;7.87;;;6.40;99.90;;;;;;20825168;28;20037;-73
2021/05/04 07:12:35;;;;;;;;;;;6.60;99.90;;;;;;20826055;28;20029;-73
2021/05/04 07:22:36;;;;;;;11.33;7.97;;;6.80;99.90;;;;;;20823997;28;19913;-73
2021/05/04 07:32:37;;;;;;;;;;;6.80;99.90;;;;;;20825200;28;20318;-73
2021/05/04 07:42:39;;;;;;;10.05;7.60;;;7.10;99.90;;;;;;20839389;28;19957;-73
2021/05/04 07:52:40;;;;;;;11.47;7.23;;;7.50;99.90;;;;;;20823901;28;20034;-73
2021/05/04 08:02:41;;;;;;;13.00;7.93;;;7.80;99.90;;;;;;20823448;28;20106;-73
2021/05/04 08:12:41;;;;;;;18.53;7.83;;;8.10;99.90;;;;;;20824117;28;20038;-73
2021/05/04 08:22:42;;;;;;;11.07;6.90;;;8.70;99.90;;;;;;20831026;28;20459;-73
2021/05/04 08:32:44;;;;;;;13.83;7.67;;;9.40;99.90;;;;;;20854905;28;20381;-73
2021/05/04 08:42:46;;;;;;;5.90;3.70;;;9.80;99.90;;;;;;20839088;28;20105;-73
2021/05/04 08:52:48;;;;;;;3.93;2.50;;;10.80;99.90;;;;;;20842905;28;20407;-74
2021/05/04 09:03:17;;;;;;;2.20;1.60;;;12.30;99.90;;;;;;20836694;28;20021;-73
2021/05/04 09:13:27;;;;;;;4.32;1.45;;;13.70;99.90;;;;;;20835735;28;20124;-73
2021/05/04 09:23:28;;;;;;;4.13;1.67;;;14.60;99.90;;;;;;20832805;28;20021;-72
2021/05/04 09:33:38;;;;;;;4.73;2.10;;;15.00;99.90;;;;;;20831337;28;20037;-72
2021/05/04 09:43:38;;;;;;;4.43;1.60;;;15.20;99.90;;;;;;20816432;28;20034;-73
2021/05/04 10:03:44;;;;;;;3.90;1.83;;;15.50;99.90;;;;;;20818504;28;20034;-72
2021/05/04 10:13:47;;;;;;;11.73;1.85;;;15.50;99.90;;;;;;20760725;28;20408;-72
2021/05/04 10:23:49;;;;;;;4.43;2.28;;;15.60;99.90;;;;;;20781055;28;20033;-72
2021/05/04 10:33:50;;;;;;;2.70;1.38;;;16.40;99.90;;;;;;20833940;28;20041;-72
2021/05/04 10:44:07;;;;;;;4.22;1.55;;;17.20;99.90;;;;;;20824697;28;20377;-72
2021/05/04 10:54:08;;;;;;;2.78;1.70;;;17.50;99.90;;;;;;20824887;28;20151;-72
2021/05/04 11:04:09;;;;;;;2.60;1.63;;;17.10;99.90;;;;;;20833300;28;20064;-73
2021/05/04 11:14:15;;;;;;;5.53;1.57;;;17.40;99.90;;;;;;20840787;28;20511;-73
2021/05/04 11:24:17;;;;;;;3.55;1.40;;;17.60;99.90;;;;;;20839939;28;20443;-73
2021/05/04 11:34:39;;;;;;;2.60;1.55;;;17.40;99.90;;;;;;20824211;28;20025;-73
2021/05/04 11:44:40;;;;;;;2.33;1.33;;;17.50;99.90;;;;;;20824476;28;20041;-74
2021/05/04 11:54:41;;;;;;;2.65;1.95;;;17.70;99.90;;;;;;20827297;28;20029;-73
2021/05/04 12:04:50;;;;;;;3.70;1.48;;;17.40;98.20;;;;;;20837535;28;20033;-73
2021/05/04 12:14:57;;;;;;;4.22;1.80;;;17.30;97.60;;;;;;20836510;28;20037;-73
2021/05/04 12:24:58;;;;;;;4.13;1.40;;;17.30;98.70;;;;;;20837304;28;20117;-72
2021/05/04 12:35:31;;;;;;;3.65;1.65;;;17.40;99.90;;;;;;20836512;28;20057;-73
2021/05/04 12:45:32;;;;;;;11.13;1.58;;;17.00;97.60;;;;;;20850725;28;20083;-73
2021/05/04 12:55:32;;;;;;;3.10;1.55;;;18.10;97.40;;;;;;20850392;28;20041;-73
2021/05/04 13:05:35;;;;;;;8.07;1.13;;;18.40;95.40;;;;;;20833867;28;20029;-74
2021/05/04 13:36:19;;;;;;;3.13;1.30;;;18.00;93.00;;;;;;20812273;28;20067;-73
2021/05/04 13:56:40;;;;;;;6.05;2.35;;;18.40;94.40;;;;;;20791063;28;20022;-72
2021/05/04 14:07:02;;;;;;;3.83;1.02;;;18.00;94.60;;;;;;20809963;28;20045;-73
2021/05/04 14:27:23;;;;;;;5.97;2.85;;;17.60;94.70;;;;;;20808600;28;20029;-73
2021/05/04 14:37:56;;;;;;;5.87;1.27;;;17.40;94.90;;;;;;20807532;28;20108;-73
2021/05/04 15:08:01;;;;;;;7.03;2.08;;;16.80;96.00;;;;;;20807510;28;20033;-72
2021/05/04 15:18:09;;;;;;;3.47;1.60;;;16.00;99.60;;;;;;20857651;22;20049;-74
2021/05/04 15:28:10;;;;;;;6.03;1.85;;;15.60;99.90;;;;;;20889240;28;20091;-74
2021/05/04 15:38:11;;;;;;;3.00;1.45;;;15.30;99.90;;;;;;20902464;28;20036;-74
2021/05/04 15:48:19;;;;;;;3.92;1.92;;;14.90;99.90;;;;;;20904151;28;20041;-74
2021/05/04 16:08:47;;;;;;;3.53;2.70;;;14.10;99.90;;;;;;20901240;28;20056;-75
2021/05/04 16:18:57;;;;;;;5.53;2.90;;;13.80;99.90;;;;;;20900669;28;20041;-75
2021/05/04 16:39:10;;;;;;;4.28;2.88;;;13.50;99.90;;;;;;20897962;28;20114;-75
2021/05/04 16:49:11;;;;;;;10.60;3.58;;;13.20;99.90;;;;;;20909914;28;20036;-74
2021/05/04 16:59:12;;;;;;;8.57;3.67;;;12.80;99.90;;;;;;20909624;28;20434;-74
2021/05/04 17:19:33;;;;;;;6.55;3.50;;;12.30;99.90;;;;;;20913140;28;20065;-75
2021/05/04 17:29:34;;;;;;;5.50;3.90;;;12.10;99.90;;;;;;20914187;28;20025;-77
2021/05/04 17:39:35;;;;;;;5.63;3.58;;;12.00;99.90;;;;;;20912035;28;20074;-76
2021/05/04 17:49:36;;;;;;;10.87;4.80;;;11.90;99.90;;;;;;20911803;28;20025;-76
2021/05/04 17:59:38;;;;;;;7.53;5.13;;;11.90;99.90;;;;;;20910901;28;20391;-76
2021/05/04 18:09:39;;;;;;;;;;;11.70;99.90;;;;;;20924059;28;20033;-77
2021/05/04 18:29:59;;;;;;;17.48;12.38;;;11.40;99.90;;;;;;20957754;28;20052;-78
2021/05/04 20:12:33;;;;;;;6.90;4.20;;;10.90;99.90;;;;;;20898558;28;20079;-78
2021/05/04 20:22:34;;;;;;;8.48;4.28;;;10.80;99.90;;;;;;20927858;28;20072;-78
2021/05/04 20:32:36;;;;;;;4.70;3.47;;;10.80;99.90;;;;;;20954082;28;20387;-77
2021/05/04 20:42:38;;;;;;;5.13;3.30;;;10.70;99.90;;;;;;20909107;28;20064;-77
2021/05/04 20:52:40;;;;;;;9.77;4.32;;;10.70;99.90;;;;;;20921910;28;20032;-74
2021/05/04 21:02:41;;;;;;;6.33;3.43;;;10.70;99.90;;;;;;20905311;28;20090;-77
2021/05/04 21:12:47;;;;;;;6.47;3.97;;;10.60;99.90;;;;;;20904452;28;20033;-76
2021/05/04 21:33:03;;;;;;;8.00;3.67;;;10.40;99.90;;;;;;20912471;28;20539;-76
2021/05/04 21:43:04;;;;;;;6.47;3.33;;;10.40;99.90;;;;;;20908310;28;20021;-76
2021/05/04 21:53:12;;;;;;;8.33;4.10;;;10.30;99.90;;;;;;20911204;28;20031;-76
2021/05/04 22:03:13;;;;;;;7.95;3.97;;;10.30;99.90;;;;;;20911239;28;20037;-76
2021/05/04 23:24:34;;;;;;;6.07;4.03;;;10.00;99.90;;;;;;20912888;28;20071;-77
2021/05/04 23:34:35;;;;;;;7.37;4.60;;;10.00;99.90;;;;;;20908319;28;20328;-76
2021/05/04 23:44:36;;;;;;;6.33;3.87;;;9.80;99.90;;;;;;20925405;28;20021;-78
2021/05/04 23:54:37;;;;;;;7.63;4.53;;;9.70;99.90;;;;;;20902729;28;20028;-77
